createdAt,value
2024-05-09T00:00:42.014Z,12.30
2024-05-09T00:03:11.350Z,12.20
2024-05-09T00:05:43.488Z,12.20
2024-05-09T00:08:11.617Z,12.20
2024-05-09T00:10:40.699Z,12.10
2024-05-09T00:13:09.491Z,12.10
2024-05-09T00:15:37.500Z,12.20
2024-05-09T00:18:06.974Z,12.20
2024-05-09T00:20:39.197Z,12.20
2024-05-09T00:23:12.994Z,12.20
2024-05-09T00:25:44.733Z,12.20
2024-05-09T00:28:13.038Z,12.10
2024-05-09T00:30:40.850Z,12.10
2024-05-09T00:33:09.960Z,12.10
2024-05-09T00:35:40.071Z,12.10
2024-05-09T00:38:08.207Z,12.10
2024-05-09T00:40:43.404Z,12.10
2024-05-09T00:43:12.378Z,12.10
2024-05-09T00:45:41.034Z,12.10
2024-05-09T00:48:09.858Z,12.10
2024-05-09T00:50:40.502Z,12.10
2024-05-09T00:53:10.280Z,12.10
2024-05-09T00:55:37.984Z,12.10
2024-05-09T00:58:06.012Z,12.00
2024-05-09T01:00:39.046Z,12.10
2024-05-09T01:03:10.318Z,12.00
2024-05-09T01:05:40.783Z,12.00
2024-05-09T01:08:09.132Z,12.00
2024-05-09T01:10:37.332Z,12.00
2024-05-09T01:13:05.566Z,12.00
2024-05-09T01:15:33.536Z,12.00
2024-05-09T01:18:01.693Z,12.00
2024-05-09T01:20:39.552Z,12.00
2024-05-09T01:23:11.283Z,12.00
2024-05-09T01:25:39.213Z,12.00
2024-05-09T01:28:07.253Z,12.00
2024-05-09T01:30:37.177Z,12.00
2024-05-09T01:33:07.410Z,12.00
2024-05-09T01:35:36.973Z,12.00
2024-05-09T01:38:05.022Z,11.90
2024-05-09T01:40:37.502Z,11.90
2024-05-09T01:43:08.139Z,11.90
2024-05-09T01:45:36.470Z,11.90
2024-05-09T01:48:04.758Z,11.90
2024-05-09T01:50:38.577Z,11.90
2024-05-09T01:53:13.257Z,11.90
2024-05-09T01:55:42.088Z,11.90
2024-05-09T01:58:10.015Z,11.90
2024-05-09T02:00:41.350Z,11.90
2024-05-09T02:03:13.355Z,11.90
2024-05-09T02:05:44.031Z,11.90
2024-05-09T02:08:15.674Z,11.80
2024-05-09T02:10:47.143Z,11.90
2024-05-09T02:13:15.269Z,11.90
2024-05-09T02:15:42.866Z,11.90
2024-05-09T02:18:11.112Z,11.90
2024-05-09T02:20:39.564Z,11.90
2024-05-09T02:23:08.975Z,11.80
2024-05-09T02:25:38.832Z,11.90
2024-05-09T02:28:06.444Z,11.90
2024-05-09T02:30:39.772Z,11.90
2024-05-09T02:33:11.416Z,11.80
2024-05-09T02:35:41.125Z,11.80
2024-05-09T02:38:09.519Z,11.80
2024-05-09T02:40:39.181Z,11.80
2024-05-09T02:43:08.869Z,11.80
2024-05-09T02:45:37.836Z,11.80
2024-05-09T02:48:06.206Z,11.80
2024-05-09T02:50:38.492Z,11.80
2024-05-09T02:53:08.667Z,11.80
2024-05-09T02:55:37.543Z,11.80
2024-05-09T02:58:06.780Z,11.80
2024-05-09T03:00:39.097Z,11.80
2024-05-09T03:03:14.828Z,11.80
2024-05-09T03:05:44.778Z,11.80
2024-05-09T03:08:13.087Z,11.80
2024-05-09T03:10:40.766Z,11.80
2024-05-09T03:13:09.169Z,11.80
2024-05-09T03:15:37.241Z,11.80
2024-05-09T03:18:05.933Z,11.80
2024-05-09T03:20:36.213Z,11.80
2024-05-09T03:23:05.728Z,11.80
2024-05-09T03:25:34.737Z,11.80
2024-05-09T03:28:02.356Z,11.80
2024-05-09T03:30:39.112Z,11.80
2024-05-09T03:33:11.225Z,11.80
2024-05-09T03:35:39.210Z,11.80
2024-05-09T03:38:06.899Z,11.80
2024-05-09T03:40:34.953Z,11.80
2024-05-09T03:43:02.534Z,11.80
2024-05-09T03:45:30.138Z,11.80
2024-05-09T03:47:59.398Z,11.80
2024-05-09T03:50:33.682Z,11.80
2024-05-09T03:53:03.542Z,11.80
2024-05-09T03:55:31.380Z,11.80
2024-05-09T03:57:59.374Z,11.80
2024-05-09T04:00:35.182Z,11.80
2024-05-09T04:03:08.572Z,11.80
2024-05-09T04:05:39.994Z,11.80
2024-05-09T04:08:08.265Z,11.80
2024-05-09T04:10:36.057Z,11.80
2024-05-09T04:13:04.251Z,11.80
2024-05-09T04:15:32.453Z,11.80
2024-05-09T04:18:00.858Z,11.80
2024-05-09T04:20:37.021Z,11.80
2024-05-09T04:23:08.368Z,11.80
2024-05-09T04:25:37.756Z,11.80
2024-05-09T04:28:05.809Z,11.80
2024-05-09T04:30:38.406Z,11.80
2024-05-09T04:33:10.893Z,11.80
2024-05-09T04:35:42.295Z,11.80
2024-05-09T04:38:10.390Z,11.80
2024-05-09T04:40:38.405Z,11.80
2024-05-09T04:43:06.910Z,11.80
2024-05-09T04:45:35.451Z,11.90
2024-05-09T04:48:03.791Z,11.90
2024-05-09T04:50:36.969Z,11.90
2024-05-09T04:53:08.230Z,11.90
2024-05-09T04:55:37.402Z,12.00
2024-05-09T04:58:05.837Z,12.00
2024-05-09T05:00:37.290Z,12.00
2024-05-09T05:03:13.116Z,12.00
2024-05-09T05:05:43.920Z,12.10
2024-05-09T05:08:14.070Z,12.10
2024-05-09T05:10:42.235Z,12.10
2024-05-09T05:13:18.414Z,12.20
2024-05-09T05:15:47.929Z,12.10
2024-05-09T05:18:15.936Z,12.20
2024-05-09T05:20:44.005Z,12.20
2024-05-09T05:23:12.497Z,12.20
2024-05-09T05:25:40.517Z,12.20
2024-05-09T05:28:08.193Z,12.20
2024-05-09T05:30:38.144Z,12.30
2024-05-09T05:33:06.133Z,12.30
2024-05-09T05:35:34.527Z,12.30
2024-05-09T05:38:02.861Z,12.40
2024-05-09T05:40:36.939Z,12.40
2024-05-09T05:43:06.066Z,12.40
2024-05-09T05:45:33.654Z,12.40
2024-05-09T05:48:03.006Z,12.40
2024-05-09T05:50:35.859Z,12.40
2024-05-09T05:53:05.859Z,12.50
2024-05-09T05:55:33.656Z,12.50
2024-05-09T05:58:01.661Z,12.50
2024-05-09T06:00:35.435Z,12.50
2024-05-09T06:03:06.681Z,12.60
2024-05-09T06:05:35.385Z,12.60
2024-05-09T06:08:03.036Z,12.60
2024-05-09T06:10:37.769Z,12.70
2024-05-09T06:13:11.530Z,12.70
2024-05-09T06:15:40.050Z,12.70
2024-05-09T06:18:08.423Z,12.80
2024-05-09T06:20:38.076Z,12.80
2024-05-09T06:23:06.860Z,12.80
2024-05-09T06:25:35.445Z,12.90
2024-05-09T06:28:03.522Z,12.90
2024-05-09T06:30:38.842Z,12.90
2024-05-09T06:33:10.137Z,13.00
2024-05-09T06:35:40.180Z,13.10
2024-05-09T06:38:11.690Z,13.10
2024-05-09T06:40:41.890Z,13.20
2024-05-09T06:43:15.264Z,13.20
2024-05-09T06:45:44.377Z,13.20
2024-05-09T06:48:12.226Z,13.30
2024-05-09T06:50:40.832Z,13.30
2024-05-09T06:53:08.676Z,13.40
2024-05-09T06:55:36.816Z,13.40
2024-05-09T06:58:05.411Z,13.50
2024-05-09T07:00:38.835Z,13.60
2024-05-09T07:03:14.435Z,13.70
2024-05-09T07:05:44.954Z,13.70
2024-05-09T07:08:14.113Z,13.80
2024-05-09T07:10:41.964Z,13.90
2024-05-09T07:13:10.132Z,13.90
2024-05-09T07:15:37.988Z,14.00
2024-05-09T07:18:12.150Z,14.10
2024-05-09T07:20:41.311Z,14.10
2024-05-09T07:23:09.776Z,14.20
2024-05-09T07:25:37.580Z,14.20
2024-05-09T07:28:05.421Z,14.20
2024-05-09T07:30:34.571Z,14.40
2024-05-09T07:33:03.737Z,14.50
2024-05-09T07:35:31.801Z,14.60
2024-05-09T07:37:59.875Z,14.80
2024-05-09T07:40:35.075Z,14.80
2024-05-09T07:43:04.745Z,14.80
2024-05-09T07:52:23.291Z,14.90
2024-05-09T07:53:39.513Z,14.90
2024-05-09T07:56:11.888Z,15.00
2024-05-09T07:58:39.923Z,15.00
2024-05-09T08:01:08.892Z,15.10
2024-05-09T08:03:38.563Z,15.20
2024-05-09T08:06:06.307Z,15.20
2024-05-09T08:08:33.864Z,15.10
2024-05-09T08:11:02.202Z,15.20
2024-05-09T08:13:29.798Z,15.30
2024-05-09T08:15:57.475Z,15.30
2024-05-09T08:18:25.270Z,15.40
2024-05-09T08:20:53.431Z,15.40
2024-05-09T08:23:20.993Z,15.30
2024-05-09T08:25:48.584Z,15.20
2024-05-09T08:28:16.541Z,15.20
2024-05-09T08:30:44.575Z,15.30
2024-05-09T08:33:12.824Z,15.40
2024-05-09T08:35:40.595Z,15.50
2024-05-09T08:38:09.811Z,15.60
2024-05-09T08:40:38.290Z,15.60
2024-05-09T08:43:07.299Z,15.70
2024-05-09T08:45:35.711Z,15.70
2024-05-09T08:48:07.979Z,15.80
2024-05-09T08:50:38.962Z,15.90
2024-05-09T08:53:08.266Z,15.80
2024-05-09T08:55:40.431Z,15.80
2024-05-09T08:58:11.135Z,15.80
2024-05-09T09:00:39.203Z,16.00
2024-05-09T09:03:07.314Z,16.10
2024-05-09T09:05:35.320Z,16.20
2024-05-09T09:08:04.708Z,16.40
2024-05-09T09:10:33.374Z,16.50
2024-05-09T09:13:01.609Z,16.70
2024-05-09T09:15:29.365Z,16.70
2024-05-09T09:18:01.425Z,16.60
2024-05-09T09:20:36.426Z,16.60
2024-05-09T09:23:05.077Z,16.40
2024-05-09T09:25:32.774Z,16.40
2024-05-09T09:28:00.575Z,16.40
2024-05-09T09:30:36.177Z,16.40
2024-05-09T09:33:06.470Z,16.40
2024-05-09T09:35:34.582Z,16.30
2024-05-09T09:38:03.076Z,16.30
2024-05-09T09:40:35.097Z,16.20
2024-05-09T09:43:08.889Z,16.20
2024-05-09T09:45:36.783Z,16.20
2024-05-09T09:48:05.250Z,16.10
2024-05-09T09:50:34.861Z,16.10
2024-05-09T09:53:04.293Z,16.00
2024-05-09T09:55:32.573Z,16.00
2024-05-09T09:58:00.356Z,16.00
2024-05-09T10:00:32.962Z,15.90
2024-05-09T10:03:02.189Z,15.90
2024-05-09T10:05:30.437Z,15.90
2024-05-09T10:07:58.538Z,15.80
2024-05-09T10:10:32.199Z,15.80
2024-05-09T10:13:03.126Z,15.70
2024-05-09T10:15:45.566Z,15.80
2024-05-09T10:18:13.893Z,15.70
2024-05-09T10:20:42.422Z,15.70
2024-05-09T10:23:29.088Z,15.60
2024-05-09T10:26:03.773Z,15.60
2024-05-09T10:28:32.178Z,15.60
2024-05-09T10:31:01.174Z,15.70
2024-05-09T10:33:55.652Z,15.70
2024-05-09T10:36:26.633Z,15.80
2024-05-09T10:38:54.683Z,15.80
2024-05-09T10:41:23.564Z,15.90
2024-05-09T10:43:51.753Z,16.00
2024-05-09T10:46:20.005Z,16.00
2024-05-09T10:48:50.112Z,16.00
2024-05-09T10:51:19.732Z,16.00
2024-05-09T10:53:48.155Z,16.00
2024-05-09T10:56:16.209Z,16.00
2024-05-09T10:58:44.090Z,16.10
2024-05-09T11:01:12.096Z,16.10
2024-05-09T11:03:40.402Z,16.20
2024-05-09T11:06:09.970Z,16.20
2024-05-09T11:08:37.989Z,16.30
2024-05-09T11:11:08.144Z,16.30
2024-05-09T11:13:37.243Z,16.30
2024-05-09T11:16:05.992Z,16.30
2024-05-09T11:18:37.927Z,16.30
2024-05-09T11:21:11.973Z,16.40
2024-05-09T11:23:39.659Z,16.40
2024-05-09T11:26:07.503Z,16.50
2024-05-09T11:28:36.691Z,16.50
2024-05-09T11:31:05.484Z,16.50
2024-05-09T11:33:33.361Z,16.50
2024-05-09T11:36:01.174Z,16.50
2024-05-09T11:38:29.483Z,16.50
2024-05-09T11:40:57.217Z,16.50
2024-05-09T11:43:24.840Z,16.60
2024-05-09T11:45:52.652Z,16.60
2024-05-09T11:48:20.730Z,16.60
2024-05-09T11:50:49.031Z,16.60
2024-05-09T11:53:16.693Z,16.50
2024-05-09T11:55:44.461Z,16.60
2024-05-09T11:58:13.899Z,16.60
2024-05-09T12:00:41.696Z,16.60
2024-05-09T12:03:09.480Z,16.70
2024-05-09T12:05:37.281Z,16.70
2024-05-09T12:08:05.196Z,16.70
2024-05-09T12:10:35.495Z,16.80
2024-05-09T12:13:06.281Z,16.80
2024-05-09T12:15:38.815Z,16.80
2024-05-09T12:18:07.783Z,16.90
2024-05-09T12:20:38.905Z,16.90
2024-05-09T12:23:09.503Z,16.90
2024-05-09T12:25:39.042Z,16.90
2024-05-09T12:28:07.536Z,16.90
2024-05-09T12:30:39.787Z,16.90
2024-05-09T12:33:09.979Z,17.00
2024-05-09T12:35:38.404Z,16.90
2024-05-09T12:38:06.205Z,17.00
2024-05-09T12:40:37.273Z,17.00
2024-05-09T12:43:08.233Z,16.90
2024-05-09T12:45:37.643Z,17.00
2024-05-09T12:48:08.511Z,17.00
2024-05-09T12:50:39.276Z,17.00
2024-05-09T12:53:07.021Z,17.00
2024-05-09T12:55:43.809Z,17.00
2024-05-09T12:58:17.865Z,17.00
2024-05-09T13:00:45.954Z,17.00
2024-05-09T13:03:14.225Z,17.10
2024-05-09T13:05:44.823Z,17.20
2024-05-09T13:08:13.617Z,17.20
2024-05-09T13:10:41.692Z,17.20
2024-05-09T13:13:10.250Z,17.20
2024-05-09T13:15:38.199Z,17.30
2024-05-09T13:18:06.503Z,17.40
2024-05-09T13:20:36.153Z,17.40
2024-05-09T13:23:05.391Z,17.40
2024-05-09T13:25:35.116Z,17.50
2024-05-09T13:28:03.646Z,17.40
2024-05-09T13:30:39.235Z,17.30
2024-05-09T13:33:15.788Z,17.20
2024-05-09T13:35:47.590Z,17.10
2024-05-09T13:38:18.819Z,17.00
2024-05-09T13:40:47.223Z,17.10
2024-05-09T13:43:15.332Z,17.10
2024-05-09T13:45:43.296Z,17.10
2024-05-09T13:48:11.448Z,17.10
2024-05-09T13:50:39.563Z,17.10
2024-05-09T13:53:08.562Z,17.10
2024-05-09T13:55:40.227Z,17.20
2024-05-09T13:58:08.722Z,17.40
2024-05-09T14:00:45.178Z,17.50
2024-05-09T14:03:17.467Z,17.60
2024-05-09T14:05:47.249Z,17.70
2024-05-09T14:08:15.993Z,17.60
2024-05-09T14:10:46.628Z,17.60
2024-05-09T14:13:15.092Z,17.60
2024-05-09T14:15:43.224Z,17.60
2024-05-09T14:18:13.553Z,17.70
2024-05-09T14:20:42.594Z,17.80
2024-05-09T14:23:10.677Z,17.90
2024-05-09T14:25:42.601Z,18.00
2024-05-09T14:28:12.858Z,18.00
2024-05-09T14:30:41.623Z,18.10
2024-05-09T14:33:09.901Z,18.10
2024-05-09T14:35:38.849Z,18.20
2024-05-09T14:38:07.704Z,18.30
2024-05-09T14:40:41.379Z,18.40
2024-05-09T14:43:12.397Z,18.40
2024-05-09T14:45:40.908Z,18.50
2024-05-09T14:48:09.131Z,18.50
2024-05-09T14:50:39.429Z,18.50
2024-05-09T14:53:08.950Z,18.50
2024-05-09T14:55:37.834Z,18.50
2024-05-09T14:58:06.740Z,18.50
2024-05-09T15:00:36.683Z,18.60
2024-05-09T15:03:06.469Z,18.50
2024-05-09T15:05:34.190Z,18.30
2024-05-09T15:08:01.864Z,18.20
2024-05-09T15:10:34.775Z,18.10
2024-05-09T15:13:04.456Z,18.00
2024-05-09T15:15:32.536Z,17.90
2024-05-09T15:18:00.357Z,17.90
2024-05-09T15:20:34.546Z,17.80
2024-05-09T15:23:04.785Z,17.90
2024-05-09T15:25:33.352Z,18.00
2024-05-09T15:28:01.203Z,18.10
2024-05-09T15:30:32.292Z,18.30
2024-05-09T15:33:04.117Z,18.40
2024-05-09T15:35:33.444Z,18.30
2024-05-09T15:38:03.089Z,18.20
2024-05-09T15:40:38.110Z,18.20
2024-05-09T15:43:09.770Z,18.10
2024-05-09T15:45:39.820Z,18.20
2024-05-09T15:48:08.764Z,18.30
2024-05-09T15:50:40.734Z,18.40
2024-05-09T15:53:11.551Z,18.50
2024-05-09T15:55:40.019Z,18.50
2024-05-09T15:58:08.145Z,18.60
2024-05-09T16:00:39.853Z,18.70
2024-05-09T16:03:11.086Z,18.80
2024-05-09T16:05:41.179Z,18.90
2024-05-09T16:08:09.397Z,18.90
2024-05-09T16:10:43.439Z,18.90
2024-05-09T16:13:12.614Z,18.90
2024-05-09T16:15:40.521Z,18.80
2024-05-09T16:18:08.593Z,18.80
2024-05-09T16:20:40.255Z,18.70
2024-05-09T16:23:10.665Z,18.60
2024-05-09T16:25:39.276Z,18.40
2024-05-09T16:28:10.094Z,18.40
2024-05-09T16:30:39.743Z,18.40
2024-05-09T16:33:09.521Z,18.30
2024-05-09T16:35:37.997Z,18.30
2024-05-09T16:38:08.936Z,18.20
2024-05-09T16:40:40.137Z,18.20
2024-05-09T16:43:10.348Z,18.10
2024-05-09T16:45:44.102Z,18.10
2024-05-09T16:48:12.498Z,18.10
2024-05-09T16:50:40.179Z,18.10
2024-05-09T16:53:08.697Z,18.10
2024-05-09T16:55:36.864Z,18.10
2024-05-09T16:58:06.755Z,18.10
2024-05-09T17:00:41.146Z,18.10
2024-05-09T17:03:12.755Z,18.10
2024-05-09T17:05:42.453Z,18.10
2024-05-09T17:08:10.513Z,18.10
2024-05-09T17:10:38.415Z,18.10
2024-05-09T17:13:07.619Z,18.10
2024-05-09T17:15:37.442Z,18.00
2024-05-09T17:18:06.101Z,18.00
2024-05-09T17:20:36.520Z,18.00
2024-05-09T17:23:12.915Z,17.90
2024-05-09T17:25:41.246Z,17.90
2024-05-09T17:28:10.697Z,17.80
2024-05-09T17:30:40.378Z,17.80
2024-05-09T17:33:11.429Z,17.80
2024-05-09T17:35:40.495Z,17.70
2024-05-09T17:38:08.343Z,17.70
2024-05-09T17:40:38.372Z,17.60
2024-05-09T17:43:09.066Z,17.60
2024-05-09T17:45:39.354Z,17.60
2024-05-09T17:48:09.822Z,17.50
2024-05-09T17:50:38.637Z,17.50
2024-05-09T17:53:06.783Z,17.40
2024-05-09T17:55:35.335Z,17.40
2024-05-09T17:58:03.937Z,17.30
2024-05-09T18:00:38.615Z,17.30
2024-05-09T18:03:11.825Z,17.20
2024-05-09T18:05:41.106Z,17.10
2024-05-09T18:08:09.200Z,17.10
2024-05-09T18:10:39.867Z,17.00
2024-05-09T18:13:08.814Z,17.00
2024-05-09T18:15:38.316Z,16.90
2024-05-09T18:18:06.831Z,16.90
2024-05-09T18:20:42.167Z,16.80
2024-05-09T18:23:14.192Z,16.80
2024-05-09T18:25:43.039Z,16.70
2024-05-09T18:28:10.878Z,16.60
2024-05-09T18:30:39.269Z,16.60
2024-05-09T18:33:08.234Z,16.60
2024-05-09T18:35:36.858Z,16.50
2024-05-09T18:38:05.798Z,16.50
2024-05-09T18:40:36.660Z,16.40
2024-05-09T18:43:07.829Z,16.30
2024-05-09T18:45:38.089Z,16.30
2024-05-09T18:48:07.727Z,16.20
2024-05-09T18:50:39.119Z,16.20
2024-05-09T18:53:09.127Z,16.10
2024-05-09T18:55:36.708Z,16.10
2024-05-09T18:58:04.929Z,16.00
2024-05-09T19:00:36.510Z,16.00
2024-05-09T19:03:10.276Z,15.90
2024-05-09T19:05:40.956Z,15.80
2024-05-09T19:08:09.227Z,15.80
2024-05-09T19:10:37.517Z,15.80
2024-05-09T19:13:09.324Z,15.70
2024-05-09T19:15:40.763Z,15.70
2024-05-09T19:18:09.864Z,15.60
2024-05-09T19:20:38.275Z,15.60
2024-05-09T19:23:07.061Z,15.50
2024-05-09T19:25:36.059Z,15.40
2024-05-09T19:28:04.740Z,15.40
2024-05-09T19:30:39.484Z,15.30
2024-05-09T19:33:11.122Z,15.30
2024-05-09T19:35:40.143Z,15.30
2024-05-09T19:38:08.069Z,15.20
2024-05-09T19:40:36.172Z,15.10
2024-05-09T19:43:05.833Z,15.10
2024-05-09T19:45:35.076Z,15.00
2024-05-09T19:48:06.110Z,15.00
2024-05-09T19:50:41.376Z,15.00
2024-05-09T19:53:12.600Z,14.90
2024-05-09T19:55:40.813Z,14.90
2024-05-09T19:58:08.903Z,14.90
2024-05-09T20:00:39.437Z,14.80
2024-05-09T20:03:10.203Z,14.80
2024-05-09T20:05:38.960Z,14.70
2024-05-09T20:08:07.386Z,14.70
2024-05-09T20:10:36.317Z,14.70
2024-05-09T20:13:06.822Z,14.60
2024-05-09T20:15:36.857Z,14.60
2024-05-09T20:18:06.079Z,14.50
2024-05-09T20:20:39.045Z,14.50
2024-05-09T20:23:12.722Z,14.50
2024-05-09T20:25:41.871Z,14.40
2024-05-09T20:28:10.533Z,14.40
2024-05-09T20:30:38.522Z,14.40
2024-05-09T20:33:07.932Z,14.40
2024-05-09T20:35:36.734Z,14.30
2024-05-09T20:38:04.848Z,14.30
2024-05-09T20:40:36.450Z,14.20
2024-05-09T20:43:07.169Z,14.20
2024-05-09T20:45:35.803Z,14.20
2024-05-09T20:48:03.892Z,14.10
2024-05-09T20:50:38.108Z,14.10
2024-05-09T20:53:09.226Z,14.00
2024-05-09T20:55:37.064Z,14.00
2024-05-09T20:58:04.989Z,14.00
2024-05-09T21:00:40.162Z,14.00
2024-05-09T21:03:11.897Z,13.90
2024-05-09T21:05:40.529Z,13.80
2024-05-09T21:08:08.612Z,13.80
2024-05-09T21:10:37.003Z,13.80
2024-05-09T21:13:06.230Z,13.70
2024-05-09T21:15:34.935Z,13.70
2024-05-09T21:18:03.196Z,13.60
2024-05-09T21:20:33.435Z,13.60
2024-05-09T21:23:02.106Z,13.60
2024-05-09T21:25:30.183Z,13.50
2024-05-09T21:27:57.992Z,13.50
2024-05-09T21:30:32.724Z,13.50
2024-05-09T21:33:09.666Z,13.50
2024-05-09T21:35:39.135Z,13.40
2024-05-09T21:38:07.945Z,13.40
2024-05-09T21:40:36.833Z,13.40
2024-05-09T21:43:06.480Z,13.40
2024-05-09T21:45:34.619Z,13.30
2024-05-09T21:48:05.931Z,13.30
2024-05-09T21:50:39.888Z,13.20
2024-05-09T21:53:10.468Z,13.20
2024-05-09T21:55:38.330Z,13.20
2024-05-09T21:58:06.096Z,13.10
2024-05-09T22:00:38.143Z,13.10
2024-05-09T22:03:07.523Z,13.10
2024-05-09T22:05:36.425Z,13.10
2024-05-09T22:08:04.268Z,13.10
2024-05-09T22:10:34.864Z,13.00
2024-05-09T22:13:05.220Z,13.00
2024-05-09T22:15:37.648Z,13.00
2024-05-09T22:18:06.525Z,12.90
2024-05-09T22:20:38.288Z,13.00
2024-05-09T22:23:08.182Z,12.90
2024-05-09T22:25:36.621Z,12.90
2024-05-09T22:28:04.609Z,12.90
2024-05-09T22:30:37.123Z,12.80
2024-05-09T22:33:07.779Z,12.80
2024-05-09T22:35:35.671Z,12.70
2024-05-09T22:38:03.534Z,12.70
2024-05-09T22:40:41.935Z,12.70
2024-05-09T22:43:21.020Z,12.70
2024-05-09T22:45:50.595Z,12.70
2024-05-09T22:48:18.686Z,12.60
2024-05-09T22:50:46.486Z,12.60
2024-05-09T22:53:14.083Z,12.60
2024-05-09T22:55:41.851Z,12.50
2024-05-09T22:58:10.280Z,12.50
2024-05-09T23:00:38.107Z,12.50
2024-05-09T23:03:06.348Z,12.50
2024-05-09T23:05:34.159Z,12.40
2024-05-09T23:08:02.147Z,12.40
2024-05-09T23:10:35.730Z,12.40
2024-05-09T23:13:08.535Z,12.40
2024-05-09T23:15:36.926Z,12.30
2024-05-09T23:18:05.035Z,12.30
2024-05-09T23:20:37.770Z,12.30
2024-05-09T23:23:07.929Z,12.20
2024-05-09T23:25:37.096Z,12.20
2024-05-09T23:28:05.227Z,12.20
2024-05-09T23:30:37.863Z,12.20
2024-05-09T23:33:11.432Z,12.10
2024-05-09T23:35:40.705Z,12.10
2024-05-09T23:38:08.377Z,12.10
2024-05-09T23:40:39.642Z,12.10
2024-05-09T23:43:09.885Z,12.10
2024-05-09T23:45:38.075Z,12.10
2024-05-09T23:48:06.308Z,12.20
2024-05-09T23:50:37.163Z,12.20
2024-05-09T23:53:07.935Z,12.10
2024-05-09T23:55:37.867Z,12.10
2024-05-09T23:58:06.242Z,12.10
